createdAt,value
2019-03-30T00:01:44.584Z,5.87
2019-03-30T00:04:12.598Z,6.05
2019-03-30T00:06:40.606Z,5.90
2019-03-30T00:09:09.135Z,5.87
2019-03-30T00:11:37.218Z,5.80
2019-03-30T00:14:05.257Z,5.67
2019-03-30T00:16:33.436Z,5.50
2019-03-30T00:19:01.477Z,5.78
2019-03-30T00:21:29.603Z,5.42
2019-03-30T00:23:57.683Z,5.40
2019-03-30T00:26:25.744Z,5.40
2019-03-30T00:28:53.790Z,5.37
2019-03-30T00:31:21.795Z,5.17
2019-03-30T00:33:49.807Z,5.25
2019-03-30T00:36:17.838Z,5.58
2019-03-30T00:38:45.915Z,5.37
2019-03-30T00:41:14.066Z,5.90
2019-03-30T00:43:42.075Z,5.20
2019-03-30T00:46:10.218Z,5.85
2019-03-30T00:48:38.243Z,5.50
2019-03-30T00:51:06.287Z,5.10
2019-03-30T00:53:34.300Z,5.67
2019-03-30T00:56:02.547Z,5.25
2019-03-30T00:58:30.567Z,5.53
2019-03-30T01:00:58.623Z,5.35
2019-03-30T01:03:26.720Z,5.28
2019-03-30T01:05:54.738Z,5.12
2019-03-30T01:08:22.751Z,5.40
2019-03-30T01:10:50.800Z,5.20
2019-03-30T01:13:19.065Z,5.15
2019-03-30T01:15:47.152Z,5.50
2019-03-30T01:18:15.174Z,5.25
2019-03-30T01:20:43.216Z,5.17
2019-03-30T01:23:11.243Z,5.10
2019-03-30T01:25:40.898Z,4.97
2019-03-30T01:28:09.200Z,5.53
2019-03-30T01:30:37.203Z,5.22
2019-03-30T01:33:05.587Z,5.50
2019-03-30T01:35:33.648Z,5.00
2019-03-30T01:38:01.681Z,5.33
2019-03-30T01:40:29.706Z,4.97
2019-03-30T01:42:57.730Z,5.47
2019-03-30T01:45:25.822Z,5.20
2019-03-30T01:47:53.924Z,5.05
2019-03-30T01:50:21.936Z,5.17
2019-03-30T01:52:49.980Z,5.08
2019-03-30T01:55:18.082Z,5.30
2019-03-30T01:57:46.103Z,5.20
2019-03-30T02:00:15.847Z,4.92
2019-03-30T02:02:43.883Z,5.28
2019-03-30T02:05:11.914Z,5.25
2019-03-30T02:07:40.016Z,5.37
2019-03-30T02:10:08.091Z,4.95
2019-03-30T02:12:36.181Z,5.15
2019-03-30T02:15:04.865Z,4.85
2019-03-30T02:17:32.989Z,4.92
2019-03-30T02:20:01.094Z,4.92
2019-03-30T02:22:29.136Z,4.90
2019-03-30T02:24:57.219Z,5.05
2019-03-30T02:27:25.272Z,4.95
2019-03-30T02:29:53.303Z,5.00
2019-03-30T02:32:21.325Z,4.62
2019-03-30T02:34:49.352Z,4.87
2019-03-30T02:37:17.449Z,5.03
2019-03-30T02:39:45.500Z,4.55
2019-03-30T02:42:13.509Z,4.80
2019-03-30T02:44:41.579Z,4.62
2019-03-30T02:47:09.601Z,4.87
2019-03-30T02:49:37.635Z,4.55
2019-03-30T02:52:05.659Z,4.37
2019-03-30T02:54:33.685Z,4.58
2019-03-30T02:57:01.704Z,4.50
2019-03-30T02:59:29.749Z,4.55
2019-03-30T03:01:57.836Z,4.80
2019-03-30T03:04:25.894Z,4.70
2019-03-30T03:06:53.932Z,4.58
2019-03-30T03:09:21.946Z,4.62
2019-03-30T03:11:50.066Z,4.62
2019-03-30T03:14:18.063Z,4.47
2019-03-30T03:16:46.096Z,4.70
2019-03-30T03:19:14.108Z,4.53
2019-03-30T03:21:42.164Z,4.67
2019-03-30T03:24:10.296Z,4.70
2019-03-30T03:26:38.342Z,4.55
2019-03-30T03:29:06.364Z,4.33
2019-03-30T03:31:34.400Z,4.47
2019-03-30T03:34:02.468Z,4.47
2019-03-30T03:36:31.896Z,4.70
2019-03-30T03:38:59.923Z,4.58
2019-03-30T03:41:27.963Z,4.62
2019-03-30T03:43:56.053Z,4.65
2019-03-30T03:46:24.145Z,4.45
2019-03-30T03:48:55.182Z,4.15
2019-03-30T03:51:26.394Z,4.62
2019-03-30T03:53:54.574Z,4.70
2019-03-30T03:56:22.699Z,4.53
2019-03-30T03:58:50.920Z,4.30
2019-03-30T04:01:19.628Z,4.40
2019-03-30T04:03:47.660Z,4.58
2019-03-30T04:06:15.683Z,4.40
2019-03-30T04:08:43.695Z,4.35
2019-03-30T04:11:11.746Z,4.35
2019-03-30T04:13:39.763Z,4.80
2019-03-30T04:16:07.843Z,4.65
2019-03-30T04:18:35.894Z,4.50
2019-03-30T04:21:03.973Z,4.20
2019-03-30T04:23:32.059Z,4.30
2019-03-30T04:26:00.088Z,4.75
2019-03-30T04:28:28.167Z,4.90
2019-03-30T04:30:56.186Z,4.42
2019-03-30T04:33:24.225Z,4.92
2019-03-30T04:35:52.235Z,4.58
2019-03-30T04:38:20.382Z,4.62
2019-03-30T04:40:48.434Z,4.80
2019-03-30T04:43:16.483Z,4.62
2019-03-30T04:45:44.542Z,4.58
2019-03-30T04:48:12.574Z,4.33
2019-03-30T04:50:40.830Z,4.40
2019-03-30T04:53:08.855Z,4.55
2019-03-30T04:55:36.954Z,4.53
2019-03-30T04:58:05.075Z,4.30
2019-03-30T05:00:33.217Z,4.50
2019-03-30T05:03:01.329Z,4.35
2019-03-30T05:05:29.359Z,4.08
2019-03-30T05:07:57.418Z,4.10
2019-03-30T05:10:25.462Z,3.98
2019-03-30T05:12:53.585Z,4.20
2019-03-30T05:15:21.593Z,4.35
2019-03-30T05:17:49.639Z,4.25
2019-03-30T05:20:17.650Z,4.00
2019-03-30T05:22:45.751Z,4.17
2019-03-30T05:25:13.790Z,4.10
2019-03-30T05:27:41.869Z,4.80
2019-03-30T05:30:09.920Z,4.12
2019-03-30T05:32:41.388Z,4.10
2019-03-30T05:35:07.768Z,4.22
2019-03-30T05:37:35.964Z,4.12
2019-03-30T05:40:05.678Z,4.15
2019-03-30T05:42:33.684Z,4.22
2019-03-30T05:45:04.572Z,4.10
2019-03-30T05:47:32.587Z,3.98
2019-03-30T05:50:00.650Z,4.28
2019-03-30T05:52:28.669Z,4.12
2019-03-30T05:54:56.719Z,4.08
2019-03-30T05:57:24.755Z,3.75
2019-03-30T05:59:55.690Z,4.00
2019-03-30T06:02:22.742Z,3.98
2019-03-30T06:04:50.777Z,4.20
2019-03-30T06:07:18.800Z,4.10
2019-03-30T06:09:46.831Z,4.30
2019-03-30T06:12:14.891Z,4.42
2019-03-30T06:14:42.932Z,4.20
2019-03-30T06:17:10.959Z,4.47
2019-03-30T06:19:39.036Z,4.58
2019-03-30T06:22:07.063Z,4.28
2019-03-30T06:24:35.075Z,4.87
2019-03-30T06:27:03.179Z,4.37
2019-03-30T06:29:31.216Z,4.70
2019-03-30T06:31:59.255Z,4.45
2019-03-30T06:34:27.292Z,4.22
2019-03-30T06:36:55.320Z,4.28
2019-03-30T06:39:23.397Z,3.83
2019-03-30T06:41:51.628Z,4.40
2019-03-30T06:44:19.723Z,4.22
2019-03-30T06:46:47.772Z,4.20
2019-03-30T06:49:15.890Z,4.30
2019-03-30T06:51:43.955Z,4.47
2019-03-30T06:54:14.662Z,4.00
2019-03-30T06:56:41.794Z,4.40
2019-03-30T06:59:09.893Z,4.10
2019-03-30T07:01:38.157Z,4.05
2019-03-30T07:04:06.230Z,4.40
2019-03-30T07:06:34.287Z,3.65
2019-03-30T07:09:02.545Z,3.95
2019-03-30T07:11:30.555Z,4.37
2019-03-30T07:13:58.637Z,3.83
2019-03-30T07:16:26.663Z,4.03
2019-03-30T07:18:54.700Z,3.75
2019-03-30T07:21:22.727Z,3.95
2019-03-30T07:23:50.812Z,4.30
2019-03-30T07:26:18.861Z,4.28
2019-03-30T07:28:47.390Z,4.05
2019-03-30T07:31:15.535Z,4.70
2019-03-30T07:33:43.583Z,6.28
2019-03-30T07:36:11.604Z,6.90
2019-03-30T07:38:39.717Z,6.47
2019-03-30T07:41:07.744Z,6.45
2019-03-30T07:43:35.833Z,6.60
2019-03-30T07:46:03.841Z,6.58
2019-03-30T07:48:31.897Z,7.05
2019-03-30T07:50:59.926Z,7.15
2019-03-30T07:53:27.956Z,6.72
2019-03-30T07:56:07.708Z,6.30
2019-03-30T07:58:25.853Z,6.60
2019-03-30T08:00:53.878Z,6.53
2019-03-30T08:03:22.695Z,6.72
2019-03-30T08:05:54.166Z,7.03
2019-03-30T08:08:20.511Z,6.85
2019-03-30T08:10:48.704Z,6.50
2019-03-30T08:13:16.735Z,7.03
2019-03-30T08:15:44.886Z,6.42
2019-03-30T08:18:13.001Z,6.62
2019-03-30T08:20:41.027Z,6.83
2019-03-30T08:23:09.055Z,6.95
2019-03-30T08:25:37.087Z,6.62
2019-03-30T08:28:05.106Z,5.58
2019-03-30T08:30:33.220Z,4.80
2019-03-30T08:33:01.523Z,4.42
2019-03-30T08:35:29.620Z,4.05
2019-03-30T08:37:57.712Z,3.85
2019-03-30T08:40:25.752Z,3.95
2019-03-30T08:42:53.779Z,3.87
2019-03-30T08:45:21.824Z,3.98
2019-03-30T08:47:49.853Z,3.75
2019-03-30T08:50:17.953Z,3.58
2019-03-30T08:52:46.068Z,3.80
2019-03-30T08:55:14.107Z,3.60
2019-03-30T08:57:42.144Z,3.58
2019-03-30T09:00:10.624Z,3.42
2019-03-30T09:02:38.794Z,3.62
2019-03-30T09:05:07.085Z,3.58
2019-03-30T09:07:35.195Z,3.65
2019-03-30T09:10:04.483Z,3.60
2019-03-30T09:12:32.507Z,3.62
2019-03-30T09:15:00.612Z,3.62
2019-03-30T09:17:28.932Z,3.70
2019-03-30T09:19:56.965Z,3.45
2019-03-30T09:22:25.075Z,3.60
2019-03-30T09:24:53.104Z,3.67
2019-03-30T09:27:21.165Z,6.37
2019-03-30T09:29:49.175Z,9.93
2019-03-30T09:32:17.227Z,10.40
2019-03-30T09:34:45.256Z,9.38
2019-03-30T09:37:13.299Z,10.30
2019-03-30T09:39:41.311Z,10.55
2019-03-30T09:42:09.454Z,11.10
2019-03-30T09:44:37.471Z,10.72
2019-03-30T09:47:05.526Z,10.35
2019-03-30T09:49:33.599Z,10.23
2019-03-30T09:52:01.647Z,11.70
2019-03-30T09:54:29.670Z,10.70
2019-03-30T09:56:57.695Z,10.45
2019-03-30T09:59:25.881Z,9.48
2019-03-30T10:01:53.939Z,8.53
2019-03-30T10:04:21.984Z,7.67
2019-03-30T10:06:50.185Z,7.75
2019-03-30T10:09:18.229Z,8.10
2019-03-30T10:11:46.247Z,8.73
2019-03-30T10:14:14.295Z,7.53
2019-03-30T10:16:42.295Z,7.40
2019-03-30T10:19:10.323Z,7.00
2019-03-30T10:21:38.349Z,6.65
2019-03-30T10:24:06.419Z,6.15
2019-03-30T10:26:34.451Z,5.97
2019-03-30T10:29:02.555Z,5.10
2019-03-30T10:31:30.607Z,4.87
2019-03-30T10:34:00.256Z,5.12
2019-03-30T10:36:29.904Z,4.47
2019-03-30T10:38:57.944Z,3.85
2019-03-30T10:41:26.203Z,4.37
2019-03-30T10:43:54.353Z,4.30
2019-03-30T10:46:22.557Z,3.80
2019-03-30T10:48:50.578Z,3.80
2019-03-30T10:51:18.624Z,3.60
2019-03-30T10:53:46.645Z,3.10
2019-03-30T10:56:14.781Z,3.17
2019-03-30T10:58:42.811Z,3.37
2019-03-30T11:01:11.017Z,3.35
2019-03-30T11:03:39.052Z,3.10
2019-03-30T11:06:07.064Z,3.10
2019-03-30T11:08:35.075Z,2.90
2019-03-30T11:11:03.304Z,2.75
2019-03-30T11:13:34.154Z,2.80
2019-03-30T11:16:02.186Z,2.45
2019-03-30T11:18:32.674Z,2.92
2019-03-30T11:21:00.711Z,2.72
2019-03-30T11:23:28.723Z,2.60
2019-03-30T11:25:56.762Z,2.85
2019-03-30T11:28:24.762Z,2.40
2019-03-30T11:30:52.869Z,2.52
2019-03-30T11:33:20.879Z,2.33
2019-03-30T11:35:49.067Z,2.42
2019-03-30T11:38:17.165Z,2.33
2019-03-30T11:40:45.273Z,2.47
2019-03-30T11:43:13.344Z,2.10
2019-03-30T11:45:41.412Z,2.10
2019-03-30T11:48:09.511Z,2.40
2019-03-30T11:50:37.559Z,2.47
2019-03-30T11:53:05.567Z,2.10
2019-03-30T11:55:35.965Z,1.92
2019-03-30T11:58:04.207Z,2.17
2019-03-30T12:00:32.280Z,2.35
2019-03-30T12:03:00.325Z,2.20
2019-03-30T12:05:28.347Z,2.10
2019-03-30T12:07:56.483Z,1.90
2019-03-30T12:10:24.658Z,2.30
2019-03-30T12:12:52.742Z,2.33
2019-03-30T12:15:20.751Z,1.92
2019-03-30T12:17:48.803Z,2.00
2019-03-30T12:20:16.827Z,2.00
2019-03-30T12:22:45.127Z,2.15
2019-03-30T12:25:13.144Z,2.10
2019-03-30T12:27:41.183Z,2.20
2019-03-30T12:30:09.290Z,1.98
2019-03-30T12:32:37.327Z,2.00
2019-03-30T12:35:06.491Z,2.12
2019-03-30T12:37:34.523Z,2.15
2019-03-30T12:40:02.594Z,1.95
2019-03-30T12:42:30.643Z,2.05
2019-03-30T12:44:58.680Z,1.90
2019-03-30T12:47:26.770Z,2.02
2019-03-30T12:49:54.817Z,2.00
2019-03-30T12:52:22.829Z,2.10
2019-03-30T12:54:50.921Z,1.90
2019-03-30T12:57:19.139Z,2.08
2019-03-30T12:59:47.196Z,1.87
2019-03-30T13:02:15.247Z,2.00
2019-03-30T13:04:43.450Z,2.15
2019-03-30T13:07:11.486Z,2.25
2019-03-30T13:09:39.777Z,2.10
2019-03-30T13:12:07.788Z,2.20
2019-03-30T13:14:35.930Z,2.20
2019-03-30T13:17:03.990Z,2.17
2019-03-30T13:19:32.104Z,2.00
2019-03-30T13:22:00.102Z,2.10
2019-03-30T13:24:28.147Z,2.10
2019-03-30T13:26:56.143Z,2.00
2019-03-30T13:29:24.176Z,2.08
2019-03-30T13:31:52.296Z,1.95
2019-03-30T13:34:20.518Z,2.17
2019-03-30T13:36:49.108Z,2.00
2019-03-30T13:39:17.160Z,1.90
2019-03-30T13:41:45.173Z,2.10
2019-03-30T13:44:13.204Z,2.20
2019-03-30T13:46:41.430Z,1.90
2019-03-30T13:49:09.728Z,2.30
2019-03-30T13:51:37.751Z,2.00
2019-03-30T13:54:05.780Z,2.30
2019-03-30T13:56:33.811Z,2.20
2019-03-30T13:59:02.079Z,2.08
2019-03-30T14:01:30.101Z,2.12
2019-03-30T14:03:58.133Z,2.10
2019-03-30T14:06:26.167Z,1.90
2019-03-30T14:08:54.182Z,2.00
2019-03-30T14:11:22.263Z,2.00
2019-03-30T14:13:50.574Z,2.20
2019-03-30T14:16:18.604Z,2.08
2019-03-30T14:18:46.627Z,1.80
2019-03-30T14:21:14.693Z,1.90
2019-03-30T14:23:43.551Z,1.80
2019-03-30T14:26:12.035Z,1.98
2019-03-30T14:28:40.047Z,1.95
2019-03-30T14:31:08.084Z,2.08
2019-03-30T14:33:36.124Z,2.00
2019-03-30T14:36:04.186Z,2.00
2019-03-30T14:38:32.214Z,2.12
2019-03-30T14:41:03.594Z,2.12
2019-03-30T14:43:29.988Z,1.82
2019-03-30T14:45:58.097Z,2.00
2019-03-30T14:48:26.160Z,2.10
2019-03-30T14:50:54.201Z,1.90
2019-03-30T14:53:22.369Z,2.10
2019-03-30T14:55:50.494Z,2.10
2019-03-30T14:58:18.870Z,1.90
2019-03-30T15:00:46.934Z,1.82
2019-03-30T15:03:15.119Z,1.90
2019-03-30T15:05:43.155Z,2.10
2019-03-30T15:08:11.364Z,1.90
2019-03-30T15:10:39.412Z,2.22
2019-03-30T15:13:07.499Z,1.82
2019-03-30T15:15:35.519Z,1.85
2019-03-30T15:18:03.628Z,2.00
2019-03-30T15:20:31.748Z,2.15
2019-03-30T15:22:59.800Z,2.00
2019-03-30T15:25:27.919Z,1.90
2019-03-30T15:27:55.999Z,1.85
2019-03-30T15:30:24.079Z,2.08
2019-03-30T15:32:52.107Z,1.92
2019-03-30T15:35:20.137Z,2.10
2019-03-30T15:37:48.148Z,1.90
2019-03-30T15:40:16.267Z,2.10
2019-03-30T15:42:44.283Z,1.85
2019-03-30T15:45:12.339Z,1.82
2019-03-30T15:47:40.450Z,1.75
2019-03-30T15:50:08.648Z,2.05
2019-03-30T15:52:36.679Z,1.80
2019-03-30T15:55:05.494Z,1.90
2019-03-30T15:57:33.516Z,2.08
2019-03-30T16:00:01.549Z,1.67
2019-03-30T16:02:29.566Z,1.90
2019-03-30T16:04:57.606Z,1.70
2019-03-30T16:07:25.631Z,2.00
2019-03-30T16:09:53.794Z,1.80
2019-03-30T16:12:21.974Z,1.70
2019-03-30T16:14:50.012Z,1.80
2019-03-30T16:17:18.053Z,2.00
2019-03-30T16:19:46.071Z,2.10
2019-03-30T16:22:14.083Z,1.92
2019-03-30T16:24:42.104Z,1.90
2019-03-30T16:27:10.137Z,1.80
2019-03-30T16:29:38.175Z,1.90
2019-03-30T16:32:06.439Z,2.00
2019-03-30T16:34:34.452Z,1.70
2019-03-30T16:37:02.504Z,1.82
2019-03-30T16:39:30.522Z,1.90
2019-03-30T16:41:58.732Z,1.60
2019-03-30T16:44:26.754Z,1.80
2019-03-30T16:46:57.438Z,2.00
2019-03-30T16:49:24.527Z,1.80
2019-03-30T16:51:52.664Z,1.80
2019-03-30T16:54:20.732Z,1.70
2019-03-30T16:56:49.050Z,1.90
2019-03-30T16:59:17.134Z,2.05
2019-03-30T17:01:45.172Z,1.70
2019-03-30T17:04:13.177Z,2.00
2019-03-30T17:06:41.337Z,1.80
2019-03-30T17:09:09.360Z,1.90
2019-03-30T17:11:37.440Z,2.08
2019-03-30T17:14:05.506Z,1.75
2019-03-30T17:16:33.658Z,2.17
2019-03-30T17:19:01.664Z,1.95
2019-03-30T17:21:29.711Z,1.80
2019-03-30T17:23:57.749Z,2.10
2019-03-30T17:26:25.785Z,1.85
2019-03-30T17:28:53.820Z,1.87
2019-03-30T17:31:22.087Z,1.82
2019-03-30T17:33:50.123Z,2.17
2019-03-30T17:36:18.126Z,1.92
2019-03-30T17:38:46.203Z,2.08
2019-03-30T17:41:14.325Z,1.82
2019-03-30T17:43:42.448Z,1.70
2019-03-30T17:46:10.463Z,1.90
2019-03-30T17:48:38.586Z,1.80
2019-03-30T17:51:06.604Z,1.70
2019-03-30T17:53:34.638Z,1.90
2019-03-30T17:56:04.294Z,2.02
2019-03-30T17:58:32.357Z,2.33
2019-03-30T18:01:00.388Z,2.27
2019-03-30T18:03:28.481Z,2.35
2019-03-30T18:05:56.491Z,2.42
2019-03-30T18:08:24.529Z,2.67
2019-03-30T18:10:52.645Z,2.30
2019-03-30T18:13:20.897Z,2.30
2019-03-30T18:15:48.931Z,2.55
2019-03-30T18:18:16.963Z,2.47
2019-03-30T18:20:45.001Z,2.67
2019-03-30T18:23:13.119Z,2.58
2019-03-30T18:25:41.264Z,2.92
2019-03-30T18:28:09.370Z,3.27
2019-03-30T18:30:38.292Z,3.22
2019-03-30T18:33:06.549Z,3.27
2019-03-30T18:35:34.589Z,3.58
2019-03-30T18:38:02.780Z,3.25
2019-03-30T18:40:31.573Z,3.20
2019-03-30T18:42:59.963Z,3.27
2019-03-30T18:45:28.427Z,3.37
2019-03-30T18:47:58.071Z,3.25
2019-03-30T18:50:26.217Z,3.35
2019-03-30T18:52:54.387Z,3.30
2019-03-30T18:55:22.635Z,3.33
2019-03-30T18:57:50.749Z,3.52
2019-03-30T19:00:20.569Z,7.58
2019-03-30T19:02:48.585Z,8.35
2019-03-30T19:05:16.646Z,8.88
2019-03-30T19:07:44.689Z,7.90
2019-03-30T19:10:13.332Z,6.75
2019-03-30T19:12:41.351Z,5.35
2019-03-30T19:15:09.459Z,5.12
2019-03-30T19:17:37.507Z,4.60
2019-03-30T19:20:06.166Z,4.60
2019-03-30T19:22:34.227Z,4.55
2019-03-30T19:25:02.340Z,4.50
2019-03-30T19:27:30.409Z,4.55
2019-03-30T19:29:58.440Z,4.50
2019-03-30T19:32:26.543Z,4.50
2019-03-30T19:34:54.587Z,4.20
2019-03-30T19:37:22.649Z,4.20
2019-03-30T19:39:50.678Z,4.40
2019-03-30T19:42:18.834Z,4.30
2019-03-30T19:44:46.853Z,4.05
2019-03-30T19:47:14.964Z,4.33
2019-03-30T19:49:42.994Z,4.22
2019-03-30T19:52:11.025Z,4.08
2019-03-30T19:54:39.238Z,4.55
2019-03-30T19:57:07.322Z,4.58
2019-03-30T19:59:35.418Z,4.65
2019-03-30T20:02:03.501Z,4.67
2019-03-30T20:04:31.591Z,4.50
2019-03-30T20:06:59.709Z,4.62
2019-03-30T20:09:27.725Z,4.62
2019-03-30T20:11:55.785Z,4.37
2019-03-30T20:14:24.086Z,4.37
2019-03-30T20:16:52.133Z,4.70
2019-03-30T20:19:20.417Z,4.53
2019-03-30T20:21:48.485Z,4.50
2019-03-30T20:24:16.553Z,3.75
2019-03-30T20:26:44.588Z,4.10
2019-03-30T20:29:24.701Z,4.83
2019-03-30T20:31:42.405Z,5.03
2019-03-30T20:34:10.556Z,4.75
2019-03-30T20:36:38.617Z,4.40
2019-03-30T20:39:08.389Z,4.40
2019-03-30T20:41:36.551Z,4.90
2019-03-30T20:44:05.005Z,5.10
2019-03-30T20:46:33.030Z,5.10
2019-03-30T20:49:01.135Z,4.78
2019-03-30T20:51:29.164Z,4.70
2019-03-30T20:53:57.204Z,4.92
2019-03-30T20:56:25.475Z,4.90
2019-03-30T20:58:54.495Z,4.58
2019-03-30T21:01:22.604Z,4.75
2019-03-30T21:03:50.654Z,4.90
2019-03-30T21:06:18.688Z,4.85
2019-03-30T21:08:46.728Z,5.22
2019-03-30T21:11:14.855Z,4.80
2019-03-30T21:13:42.956Z,5.10
2019-03-30T21:16:11.012Z,4.45
2019-03-30T21:18:39.038Z,5.10
2019-03-30T21:21:09.146Z,4.40
2019-03-30T21:23:36.934Z,4.80
2019-03-30T21:26:05.128Z,4.80
2019-03-30T21:28:33.139Z,4.97
2019-03-30T21:31:01.182Z,4.70
2019-03-30T21:33:29.199Z,4.83
2019-03-30T21:35:57.443Z,4.55
2019-03-30T21:38:25.507Z,4.60
2019-03-30T21:40:53.562Z,4.80
2019-03-30T21:43:21.580Z,4.78
2019-03-30T21:45:49.620Z,5.10
2019-03-30T21:48:17.776Z,4.95
2019-03-30T21:50:45.909Z,4.65
2019-03-30T21:53:13.927Z,4.50
2019-03-30T21:55:41.976Z,4.30
2019-03-30T21:58:10.029Z,4.80
2019-03-30T22:00:38.800Z,4.67
2019-03-30T22:03:06.827Z,4.67
2019-03-30T22:05:35.052Z,4.78
2019-03-30T22:08:03.873Z,4.62
2019-03-30T22:10:31.903Z,4.53
2019-03-30T22:12:59.950Z,4.47
2019-03-30T22:15:28.424Z,4.60
2019-03-30T22:17:56.741Z,4.70
2019-03-30T22:20:25.020Z,4.45
2019-03-30T22:22:53.054Z,4.70
2019-03-30T22:25:22.694Z,5.12
2019-03-30T22:27:50.744Z,4.20
2019-03-30T22:30:25.015Z,4.53
2019-03-30T22:32:48.790Z,4.37
2019-03-30T22:35:16.899Z,4.47
2019-03-30T22:37:45.037Z,4.42
2019-03-30T22:40:13.044Z,4.65
2019-03-30T22:42:41.093Z,4.30
2019-03-30T22:45:09.124Z,4.70
2019-03-30T22:47:37.189Z,4.70
2019-03-30T22:50:06.206Z,5.10
2019-03-30T22:52:34.316Z,4.40
2019-03-30T22:55:02.338Z,4.40
2019-03-30T22:57:30.386Z,4.17
2019-03-30T22:59:58.413Z,4.42
2019-03-30T23:02:26.538Z,4.12
2019-03-30T23:04:54.583Z,4.65
2019-03-30T23:07:22.617Z,4.40
2019-03-30T23:09:50.649Z,4.30
2019-03-30T23:12:18.682Z,4.37
2019-03-30T23:14:46.790Z,4.50
2019-03-30T23:17:15.093Z,4.60
2019-03-30T23:19:43.123Z,4.28
2019-03-30T23:22:11.133Z,4.70
2019-03-30T23:24:39.180Z,4.60
2019-03-30T23:27:07.327Z,3.95
2019-03-30T23:29:35.364Z,4.37
2019-03-30T23:32:03.463Z,4.17
2019-03-30T23:34:31.512Z,4.37
2019-03-30T23:36:59.544Z,4.53
2019-03-30T23:39:27.692Z,4.30
2019-03-30T23:41:55.792Z,4.25
2019-03-30T23:44:23.836Z,4.25
2019-03-30T23:46:51.852Z,4.20
2019-03-30T23:49:19.985Z,4.05
2019-03-30T23:51:48.213Z,4.25
2019-03-30T23:54:16.249Z,4.30
2019-03-30T23:56:44.367Z,4.20
2019-03-30T23:59:12.397Z,4.53
